Home > Products > Valid Products > TAF

000
FTUS46 KPDT 180800 AAA
TAFALW
TAF AMD
KALW 180827Z 1808/1906 21013KT P6SM FEW070 BKN090
     FM181200 20015G25KT P6SM SKC
     FM181500 20015G25KT P6SM SKC
     FM190000 26011KT P6SM FEW150
     FM190400 14006KT P6SM SCT150=



000
FTUS46 KPDT 180800 AAB
TAFPDT
TAF AMD
KPDT 180826Z 1808/1906 26015G23KT P6SM BKN045 OVC070
     FM181100 26018G27KT P6SM SKC
     FM182100 28015G25KT P6SM FEW150
     FM190100 28010KT P6SM FEW150
     FM190400 14006KT P6SM SCT150=



000
FTUS46 KPDT 180600 AAA
TAFDLS
TAF AMD
KDLS 180602Z 1806/1906 31011G20KT P6SM VCSH BKN040
     FM181200 29013G20KT P6SM SKC
     FM182100 30010KT P6SM SCT150=



000
FTUS46 KPDT 180600 AAA
TAFPDT
TAF AMD
KPDT 180600Z 1806/1906 24018G27KT P6SM SKC
     FM182100 28015G25KT P6SM FEW150
     FM190100 28010KT P6SM FEW150
     FM190400 14006KT P6SM SCT150=



000
FTUS46 KPDT 180500
TAFDLS
TAF
KDLS 180540Z 1806/1906 31011KT P6SM SCT080
     FM181200 29013G20KT P6SM SKC
     FM182100 30010KT P6SM SCT150=



000
FTUS46 KPDT 180500
TAFALW
TAF
KALW 180540Z 1806/1906 19013KT P6SM BKN100
     FM181200 20015G25KT P6SM SKC
     FM181500 20015G25KT P6SM SKC
     FM190000 26011KT P6SM FEW150
     FM190400 14006KT P6SM SCT150=



000
FTUS46 KPDT 180500
TAFPSC
TAF
KPSC 180540Z 1806/1906 21011KT P6SM SCT060
     FM180900 23015KT P6SM SKC
     FM181400 22011G17KT P6SM SKC
     FM182100 24008KT P6SM SCT150=



000
FTUS46 KPDT 180500
TAFPDT
TAF
KPDT 180540Z 1806/1906 17010KT P6SM SCT050
     FM180900 25018G27KT P6SM SKC
     FM182100 28015G25KT P6SM FEW150
     FM190100 28010KT P6SM FEW150
     FM190400 14006KT P6SM SCT150=



000
FTUS46 KPDT 180500
TAFRDM
TAF
KRDM 180540Z 1806/1906 28011KT P6SM SCT070
     FM181200 15003KT P6SM SKC
     FM181800 33008KT P6SM SCT150=



000
FTUS46 KPDT 180500
TAFYKM
TAF
KYKM 180540Z 1806/1906 24010KT P6SM SKC
     FM181600 31012G20KT P6SM SKC
     FM182200 30008KT P6SM SCT150=



000
FTUS46 KPDT 180300 AAB
TAFYKM
TAF AMD
KYKM 180310Z 1803/1824 24010KT P6SM BKN070
     FM181600 31012G20KT P6SM SKC
     FM182100 23008KT P6SM FEW250=



000
FTUS46 KPDT 180300 AAA
TAFDLS
TAF AMD
KDLS 180310Z 1803/1824 31011KT P6SM VCSH BKN080
     FM180800 30012G22KT P6SM SCT080
     FM181200 29013G25KT P6SM SKC
     FM182100 30010KT P6SM SCT150=



000
FTUS46 KPDT 180300 AAA
TAFPDT
TAF AMD
KPDT 180310Z 1803/1824 16010KT P6SM BKN050 OVC070
     FM180500 25015G25KT P6SM SCT050
     FM181500 24018G27KT P6SM SKC
     FM182100 28015G25KT P6SM FEW250=



000
FTUS46 KPDT 180300 AAA
TAFRDM
TAF AMD
KRDM 180310Z 1803/1824 28011KT P6SM BKN050 BKN100
     FM181200 15003KT P6SM SKC
     FM181800 33006KT P6SM SCT250=



000
FTUS46 KPDT 180300 AAA
TAFPSC
TAF AMD
KPSC 180310Z 1803/1824 21011KT P6SM OVC080
     FM180400 25015G25KT P6SM BKN050 BKN100
     FM180900 23018G28KT P6SM SCT050
     FM181400 22011G17KT P6SM SKC
     FM182100 24008KT P6SM FEW250=



000
FTUS46 KPDT 180100 AAA
TAFYKM
TAF AMD
KYKM 180105Z 1801/1824 30014G24KT P6SM SCT050 BKN100
     FM180900 24003KT P6SM SKC
     FM181600 31012G20KT P6SM SKC
     FM182100 23008KT P6SM FEW250=



000
FTUS46 KPDT 172300
TAFALW
TAF
KALW 172320Z 1800/1824 19010KT 5SM -RA BR BKN050 OVC060
     FM180400 22011KT P6SM VCSH BKN050 BKN100
     FM181200 20012G20KT P6SM SCT060
     FM181500 20015G25KT P6SM SKC
     FM182100 26011KT P6SM FEW250=



000
FTUS46 KPDT 172300
TAFYKM
TAF
KYKM 172320Z 1800/1824 19011G27KT P6SM VCSH BKN050 OVC090
     FM180400 28014G24KT P6SM SCT050 BKN100
     FM180900 24003KT P6SM SKC
     FM181600 31012G20KT P6SM SKC
     FM182100 23008KT P6SM FEW250=



000
FTUS46 KPDT 172300
TAFRDM
TAF
KRDM 172320Z 1800/1824 32008KT P6SM -RA BKN030 OVC050
     FM180400 32011KT P6SM BKN050 BKN100
     FM181200 15003KT P6SM SKC
     FM181800 33006KT P6SM SCT250=



000
FTUS46 KPDT 172300
TAFPDT
TAF
KPDT 172320Z 1800/1824 22006KT 5SM -RA BR OVC050
     FM180400 25014G22KT P6SM -RA BKN050 OVC070
     FM180900 25015G25KT P6SM SCT050
     FM181500 24018G27KT P6SM SKC
     FM182100 28015G25KT P6SM FEW250=



000
FTUS46 KPDT 172300
TAFPSC
TAF
KPSC 172320Z 1800/1824 21011KT P6SM -RA BKN050 OVC080
     FM180400 25015G25KT P6SM BKN050 BKN100
     FM180900 23018G28KT P6SM SCT050
     FM181400 22011G17KT P6SM SKC
     FM182100 24008KT P6SM FEW250=



000
FTUS46 KPDT 172300
TAFDLS
TAF
KDLS 172320Z 1800/1824 30010G16KT P6SM -RA SCT050 BKN080
     FM180300 30011G20KT P6SM VCSH BKN080
     FM180800 30012G22KT P6SM SCT080
     FM181200 29013G25KT P6SM SKC
     FM182100 30010KT P6SM SCT150=



000
FTUS46 KPDT 172100 AAB
TAFRDM
TAF AMD
KRDM 172130Z 1722/1818 30010KT P6SM -RA BKN035 BKN040 OVC060
     FM172200 32014KT P6SM -RA BKN030 OVC050
     FM180400 32011KT P6SM BKN050 BKN100
     FM181200 15003KT P6SM SKC=



000
FTUS46 KPDT 171900 AAA
TAFRDM
TAF AMD
KRDM 171930Z 1720/1818 30010KT P6SM -RA BKN009 BKN040 OVC060
     FM172200 32014KT P6SM -RA BKN030 OVC050
     FM180400 32011KT P6SM BKN050 BKN100
     FM181200 15003KT P6SM SKC=



000
FTUS46 KPDT 171700
TAFALW
TAF
KALW 171734Z 1718/1818 20006KT 5SM -RA BKN035 OVC045
     FM172100 19010KT 5SM -RA BR BKN020 OVC030
     FM180400 22011KT P6SM VCSH BKN050 BKN100
     FM181200 20012G20KT P6SM SCT060
     FM181500 20015G25KT P6SM SKC=



000
FTUS46 KPDT 171700
TAFYKM
TAF
KYKM 171734Z 1718/1818 23010KT P6SM -RA OVC040
     FM172300 25011G20KT P6SM VCSH OVC050
     FM180400 28014G24KT P6SM SCT050 BKN100
     FM180900 24003KT P6SM SKC
     FM181600 31012G20KT P6SM SKC=



000
FTUS46 KPDT 171700
TAFPSC
TAF
KPSC 171734Z 1718/1818 22011KT P6SM -RA BKN050 OVC080
     FM180400 25015G25KT P6SM BKN050 BKN100
     FM180900 23018G28KT P6SM SCT050
     FM181400 22011G17KT P6SM SKC=



000
FTUS46 KPDT 171700
TAFRDM
TAF
KRDM 171734Z 1718/1818 30010KT P6SM -RA BKN040 OVC060
     FM172200 32014KT P6SM -RA BKN030 OVC050
     FM180400 32011KT P6SM BKN050 BKN100
     FM181200 15003KT P6SM SKC=



000
FTUS46 KPDT 171700
TAFPDT
TAF
KPDT 171734Z 1718/1818 VRB04KT P6SM -RA BKN035 OVC045
     FM172100 22006KT 6SM -RA BR BKN020 OVC025
     FM180400 25014G22KT P6SM -RA BKN050 OVC070
     FM180900 25015G25KT P6SM SCT050
     FM181500 24018G27KT P6SM SKC=



000
FTUS46 KPDT 171700
TAFDLS
TAF
KDLS 171734Z 1718/1818 30010KT P6SM -RA SCT030 BKN050
     FM172100 30010G16KT P6SM -RA BKN025 OVC050
     FM180300 30011G20KT P6SM VCSH BKN040 OVC060
     FM180800 30012G22KT P6SM SCT080
     FM181200 29013G25KT P6SM SKC=



000
FTUS46 KPDT 171100
TAFRDM
TAF
KRDM 171120Z 1712/1812 VRB04KT P6SM SCT100 BKN150
     FM171500 21005KT P6SM VCSH BKN070
     FM171800 30010KT P6SM -RA BKN040 OVC060
     FM172200 32014KT P6SM -RA BKN030 OVC050
     FM180400 32011KT P6SM BKN050 BKN100=



000
FTUS46 KPDT 171100
TAFDLS
TAF
KDLS 171120Z 1712/1812 30010KT P6SM -RA SCT030 BKN050
     FM172200 30015G25KT P6SM -SHRA SCT025 BKN050 BKN080
     FM180200 30011G20KT P6SM VCSH BKN060
     FM180800 30011KT P6SM SCT080=



000
FTUS46 KPDT 171100
TAFYKM
TAF
KYKM 171120Z 1712/1812 25010KT P6SM SCT050 OVC090
      TEMPO 1714/1718 -RA BKN040 OVC070
     FM171800 23010KT P6SM -RA BKN025 OVC040
     FM172200 25011G20KT P6SM VCSH SCT030 BKN050
     FM180400 28014G24KT P6SM SCT050 BKN100=



000
FTUS46 KPDT 171100
TAFPDT
TAF
KPDT 171120Z 1712/1812 17006KT P6SM VCSH SCT050 OVC080
     FM171800 24011KT P6SM -RA SCT025 BKN040 OVC070
     FM180200 25014G22KT P6SM -SHRA BKN050
     FM180600 25015G25KT P6SM BKN050 BKN100=



000
FTUS46 KPDT 171100
TAFPSC
TAF
KPSC 171120Z 1712/1812 22008KT P6SM VCSH BKN060 OVC100
     FM171800 25012KT P6SM -RA BKN050 OVC080
     FM172200 25012KT P6SM -RA BKN040 BKN080
     FM180400 25015G25KT P6SM BKN050 BKN100=



000
FTUS46 KPDT 171100
TAFALW
TAF
KALW 171120Z 1712/1812 17008KT P6SM VCSH BKN050 OVC100
     FM171800 20012KT P6SM -RA BKN040 OVC070
     FM172200 22012KT P6SM -RA SCT025 BKN040 BKN070
     FM180400 22011KT P6SM BKN050 BKN100
     FM180600 20010KT P6SM BKN050 BKN100=



000
FTUS46 KPDT 170500
TAFALW
TAF
KALW 170535Z 1706/1806 12007KT P6SM BKN070 BKN100
     FM171200 17008KT P6SM BKN050 OVC100
     FM171800 20012KT P6SM -RA BKN040 OVC070
     FM172200 22012KT P6SM -RA BKN040 BKN070
     FM180400 22015G25KT P6SM BKN050 BKN100=



000
FTUS46 KPDT 170500
TAFYKM
TAF
KYKM 170535Z 1706/1806 27011KT P6SM VCSH BKN070 OVC100
     FM171200 25010KT P6SM BKN050 OVC070
      TEMPO 1714/1718 -RA BKN040 OVC070
     FM171800 25012KT P6SM -RA BKN030 OVC040
     FM172200 25012KT P6SM SCT030 BKN050
     FM180400 28014G24KT P6SM SCT050 BKN100=



000
FTUS46 KPDT 170500
TAFPSC
TAF
KPSC 170535Z 1706/1806 22008KT P6SM BKN070 BKN120
     FM171200 22008KT P6SM BKN050 OVC120
     FM171800 25012KT P6SM -RA BKN050 OVC080
     FM172200 25012KT P6SM -RA BKN040 BKN080
     FM180400 25015G25KT P6SM BKN050 BKN100=



000
FTUS46 KPDT 170500
TAFRDM
TAF
KRDM 170535Z 1706/1806 17007KT P6SM BKN100
     FM171800 30010KT P6SM -RA BKN040 OVC060
     FM172200 32014KT P6SM -RA BKN030 OVC050
     FM180400 32012KT P6SM VCSH BKN050 BKN100=



000
FTUS46 KPDT 170500
TAFPDT
TAF
KPDT 170535Z 1706/1806 25008KT P6SM BKN070 BKN100
     FM171200 20008KT P6SM BKN050 OVC100
     FM171800 22012KT P6SM -RA BKN040 OVC070
     FM172200 25012KT P6SM -RA BKN040 BKN070
     FM180400 25015G25KT P6SM BKN050 BKN100=



000
FTUS46 KPDT 170500
TAFDLS
TAF
KDLS 170535Z 1706/1806 VRB06KT P6SM VCSH BKN070
      TEMPO 1708/1712 -RA BKN050 BKN070
     FM171200 30010KT P6SM -RA BKN030 BKN050
     FM172200 30012KT P6SM BKN050 BKN100
      TEMPO 1722/1802 -RA BKN030 BKN050
     FM180200 30018G28KT P6SM BKN100=



000
FTUS46 KPDT 162300
TAFPSC
TAF
KPSC 162320Z 1700/1724 20011KT P6SM BKN100 OVC120
     FM171200 22004KT P6SM VCSH BKN050 OVC070 PROB30 1715/1718 6SM
      -RA BR SCT035 OVC050
     FM171800 22005KT 6SM -RA BR BKN035 OVC040=



000
FTUS46 KPDT 162300
TAFYKM
TAF
KYKM 162320Z 1700/1724 27011KT P6SM BKN070 OVC100
     FM171200 22002KT P6SM BKN050 OVC070 PROB30 1712/1718 6SM -RA BR
      BKN030 OVC040
     FM171800 22010KT 6SM -RA BR BKN030 OVC040=



000
FTUS46 KPDT 162300
TAFRDM
TAF
KRDM 162320Z 1700/1724 35007KT P6SM BKN040 OVC070
     FM170400 VRB05KT P6SM SCT060 SCT100
     FM171200 17005KT P6SM BKN100
     FM171700 30009KT P6SM BKN040 OVC060
     FM172100 29010KT 6SM -RA BR BKN030 OVC050=



000
FTUS46 KPDT 162300
TAFDLS
TAF
KDLS 162320Z 1700/1724 31011KT P6SM SCT070 BKN100
     FM170300 31011KT P6SM VCSH BKN050 OVC090
     FM170600 30006KT P6SM VCSH BKN040 OVC050 PROB30 1714/1718
      28004KT 6SM -RA BR BKN030 OVC040
     FM171800 31010KT 6SM -RA BR BKN030 OVC040=



000
FTUS46 KPDT 162300
TAFALW
TAF
KALW 162320Z 1700/1724 23011KT P6SM BKN050 OVC080
     FM170800 17010KT P6SM BKN050 OVC080
     FM171500 20007KT P6SM SCT040 BKN050 OVC060
     FM172100 20008KT 6SM -RA BR BKN020 OVC030=



000
FTUS46 KPDT 162300
TAFPDT
TAF
KPDT 162320Z 1700/1724 25010KT P6SM BKN050 OVC080
     FM170600 22010KT P6SM BKN050 BKN080 OVC120
     FM170900 17006KT P6SM SCT050 BKN080 OVC100
     FM172100 28011KT 6SM -RA BR BKN030 OVC050=



000
FTUS46 KPDT 161700
TAFDLS
TAF
KDLS 161736Z 1618/1718 30009KT P6SM VCSH OVC060
     FM162100 31012G20KT P6SM SCT070 BKN100
     FM170300 31011KT P6SM VCSH BKN050 OVC090
     FM170600 30006KT P6SM VCSH BKN040 OVC050 PROB30 1714/1718
      28004KT 6SM -SHRA BKN030 OVC040=



000
FTUS46 KPDT 161700
TAFPSC
TAF
KPSC 161736Z 1618/1718 23011KT P6SM BKN100 OVC120
     FM171200 22004KT P6SM VCSH BKN050 OVC070 PROB30 1715/1718 -SHRA
      SCT035 OVC050=



000
FTUS46 KPDT 161700
TAFPDT
TAF
KPDT 161736Z 1618/1718 22008KT P6SM VCSH SCT050 OVC080
     FM162100 26011KT P6SM BKN050 OVC080
     FM170600 22010KT P6SM BKN050 BKN080 OVC120
     FM170900 17006KT P6SM SCT050 BKN080 OVC100=



000
FTUS46 KPDT 161700
TAFALW
TAF
KALW 161736Z 1618/1718 21011KT P6SM SCT060 OVC100
     FM162100 23011KT P6SM BKN050 OVC080
     FM170800 17010KT P6SM BKN050 OVC080
     FM171500 20007KT P6SM SCT040 BKN050 OVC060=



000
FTUS46 KPDT 161700
TAFYKM
TAF
KYKM 161736Z 1618/1718 VRB04KT P6SM VCSH BKN060 OVC080
     FM162100 27009KT P6SM BKN070 OVC100
     FM171200 22002KT P6SM BKN050 OVC070 PROB30 1712/1718 6SM -SHRA
      BKN030 OVC040=



000
FTUS46 KPDT 161700
TAFRDM
TAF
KRDM 161736Z 1618/1718 VRB04KT P6SM BKN100
     FM162100 34011KT P6SM BKN040 OVC070
     FM170400 VRB05KT P6SM SCT060 SCT100
     FM171200 17005KT P6SM BKN100
     FM171700 30009KT P6SM BKN040 OVC060=



000
FTUS46 KPDT 161100
TAFPSC
TAF
KPSC 161120Z 1612/1712 VRB03KT P6SM OVC100
     FM161600 21010KT P6SM OVC060=



000
FTUS46 KPDT 161100
TAFPDT
TAF
KPDT 161120Z 1612/1712 13005KT P6SM BKN100
     FM161600 22008KT P6SM VCSH SCT050 OVC080
     FM162100 26011KT P6SM BKN050 OVC080
     FM170800 22010KT P6SM BKN050 OVC080=



000
FTUS46 KPDT 161100
TAFALW
TAF
KALW 161120Z 1612/1712 19011KT P6SM BKN100
     FM161600 21011KT P6SM SCT060 OVC100
     FM162100 23011KT P6SM BKN050 OVC080
     FM170800 17010KT P6SM BKN050 OVC080=



000
FTUS46 KPDT 161100
TAFYKM
TAF
KYKM 161120Z 1612/1712 VRB04KT P6SM OVC100
     FM161500 VRB04KT P6SM VCSH BKN060 OVC080
     FM162100 27009KT P6SM BKN070 OVC100=



000
FTUS46 KPDT 161100
TAFRDM
TAF
KRDM 161120Z 1612/1712 VRB04KT P6SM BKN100
     FM162100 34011KT P6SM BKN040 OVC070
     FM170400 VRB05KT P6SM SCT060 BKN080=



000
FTUS46 KPDT 161100
TAFDLS
TAF
KDLS 161120Z 1612/1712 32010KT P6SM SCT050 OVC080
     FM161500 30011KT P6SM VCSH OVC060
     FM162100 31012G20KT P6SM SCT070 BKN100
     FM170400 31011KT P6SM VCSH BKN050 OVC090=



000
FTUS46 KPDT 160700 AAA
TAFPDT
TAF AMD
KPDT 160704Z 1607/1706 17006KT P6SM BKN150
     FM161200 23011KT P6SM OVC100
     FM161600 22008KT P6SM BKN050 OVC080=



000
FTUS46 KPDT 160500
TAFPSC
TAF
KPSC 160520Z 1606/1706 28011KT P6SM OVC150
     FM161200 23008KT P6SM OVC100
     FM161600 21010KT P6SM OVC060=



000
FTUS46 KPDT 160500
TAFALW
TAF
KALW 160520Z 1606/1706 18008KT P6SM OVC150
     FM161200 23011KT P6SM OVC100
     FM161600 22011KT P6SM OVC050=



000
FTUS46 KPDT 160500
TAFPDT
TAF
KPDT 160520Z 1606/1706 26015KT P6SM BKN150
     FM161200 23011KT P6SM OVC100
     FM161600 22008KT P6SM BKN050 OVC080=



000
FTUS46 KPDT 160500
TAFDLS
TAF
KDLS 160520Z 1606/1706 31008KT P6SM BKN120
     FM161000 30005KT P6SM SCT050 OVC080
     FM161600 30009KT P6SM VCSH OVC060
     FM162100 31012G20KT P6SM SCT070 BKN100=



000
FTUS46 KPDT 160500
TAFYKM
TAF
KYKM 160520Z 1606/1706 27007KT P6SM BKN120
     FM160900 VRB04KT P6SM OVC100
     FM161400 VRB04KT P6SM VCSH BKN060 OVC080
     FM162100 27009KT P6SM BKN070 OVC100=



000
FTUS46 KPDT 160500
TAFRDM
TAF
KRDM 160520Z 1606/1706 VRB05KT P6SM OVC100
     FM160900 VRB04KT P6SM OVC060
     FM162100 34011KT P6SM BKN040 OVC060=



000
FTUS46 KPDT 152300
TAFDLS
TAF
KDLS 152320Z 1600/1624 29020G30KT P6SM SCT090 BKN200
     FM160400 30011KT P6SM BKN080 BKN150
     FM160900 30007KT P6SM -SHRA BKN050 OVC080
     FM161500 30009KT P6SM VCSH BKN070 OVC100
     FM162100 31014G24KT P6SM SCT070 BKN100=



000
FTUS46 KPDT 152300
TAFRDM
TAF
KRDM 152320Z 1600/1624 32009G16KT P6SM SCT060 BKN120
     FM160400 32011KT P6SM BKN050 OVC080
     FM160900 VRB04KT P6SM VCSH OVC040
     FM161500 30004KT P6SM SCT040 BKN080=



000
FTUS46 KPDT 152300
TAFPSC
TAF
KPSC 152320Z 1600/1624 31012G22KT P6SM SCT100
     FM160400 25011KT P6SM SCT080 OVC150
     FM160900 23008KT P6SM -SHRA BKN040 OVC070
     FM161600 21010G16KT P6SM VCSH BKN060 OVC080=



000
FTUS46 KPDT 152300
TAFPDT
TAF
KPDT 152320Z 1600/1624 25015G25KT P6SM SCT070
     FM160500 26015G25KT P6SM BKN070 OVC150
     FM160900 23011KT P6SM -SHRA BKN050 OVC100
     FM161600 25014G25KT P6SM -SHRA BKN035 OVC050
     FM162300 26009KT P6SM VCSH SCT080 BKN100=



000
FTUS46 KPDT 152300
TAFALW
TAF
KALW 152320Z 1600/1624 23012G20KT P6SM SCT070
     FM160200 22011G16KT P6SM BKN070 OVC150
     FM160900 18010KT P6SM BKN050 OVC100
     FM161200 19007KT P6SM -SHRA BKN035 OVC050
     FM162100 23009KT P6SM VCSH BKN060 OVC090=



000
FTUS46 KPDT 152300
TAFYKM
TAF
KYKM 152320Z 1600/1624 32011KT P6SM SCT090 SCT200
     FM160300 30011KT P6SM BKN080 BKN150
     FM160900 24004KT P6SM -SHRA BKN040 OVC060
     FM161500 23003KT P6SM VCSH BKN060 OVC080
     FM162100 27009KT P6SM BKN070 OVC100=



000
FTUS46 KPDT 151700
TAFRDM
TAF
KRDM 151732Z 1518/1618 30010G16KT P6SM SCT100 BKN200
     FM152300 32015G25KT P6SM SCT060 BKN120
     FM160400 32011KT P6SM BKN050 OVC080
     FM160900 VRB04KT P6SM VCSH OVC040
     FM161500 30004KT P6SM SCT040 BKN080=



000
FTUS46 KPDT 151700
TAFALW
TAF
KALW 151732Z 1518/1618 23015G24KT P6SM SCT070
     FM160200 22011G16KT P6SM BKN070 OVC150
     FM160900 18010KT P6SM BKN050 OVC100
     FM161200 19007KT P6SM -SHRA BKN035 OVC050=



000
FTUS46 KPDT 151700
TAFPSC
TAF
KPSC 151732Z 1518/1618 26018G25KT P6SM SCT100
     FM160400 25011KT P6SM SCT080 OVC150
     FM160900 23008KT P6SM -SHRA BKN040 OVC070
     FM161600 21010G16KT P6SM VCSH BKN060 OVC080=



000
FTUS46 KPDT 151700
TAFYKM
TAF
KYKM 151732Z 1518/1618 33012KT P6SM SCT090 SCT200
     FM160300 30011KT P6SM BKN080 BKN150
     FM160900 24004KT P6SM -SHRA BKN040 OVC060
     FM161500 23003KT P6SM VCSH BKN060 OVC080=



000
FTUS46 KPDT 151700
TAFDLS
TAF
KDLS 151732Z 1518/1618 29020G30KT P6SM SCT060 SCT150
     FM152100 31025G33KT P6SM SCT090 BKN200
     FM160400 30011KT P6SM BKN080 BKN150
     FM160900 30007KT P6SM -SHRA BKN050 OVC080
     FM161500 30009KT P6SM VCSH BKN070 OVC100=



000
FTUS46 KPDT 151700
TAFPDT
TAF
KPDT 151732Z 1518/1618 25020G30KT P6SM SCT070
     FM160500 26015G25KT P6SM BKN070 OVC150
     FM160900 23011KT P6SM -SHRA BKN050 OVC100
     FM161600 25014G25KT P6SM -SHRA BKN035 OVC050=



000
FTUS46 KPDT 151500 AAA
TAFDLS
TAF AMD
KDLS 151514Z 1515/1612 28015G25KT P6SM SCT060 SCT150
     FM152100 31025G33KT P6SM SCT090 BKN200
     FM160400 30011KT P6SM BKN080 BKN150
     FM160900 30007KT P6SM VCSH BKN050 OVC080=



000
FTUS46 KPDT 151100
TAFRDM
TAF
KRDM 151123Z 1512/1612 31011G20KT P6SM SCT060 OVC100
     FM151500 30010G19KT P6SM SCT100 BKN200
     FM152300 32015G25KT P6SM SCT060 BKN120
     FM160400 32011KT P6SM BKN050 OVC080
     FM160900 VRB04KT P6SM OVC040=



000
FTUS46 KPDT 151100
TAFALW
TAF
KALW 151123Z 1512/1612 23014G21KT P6SM SCT060 BKN150
     FM151800 23018G28KT P6SM SCT070
     FM160200 22011G16KT P6SM BKN070 OVC150
     FM160900 18010KT P6SM BKN050 OVC100=



000
FTUS46 KPDT 151100
TAFYKM
TAF
KYKM 151123Z 1512/1612 31011KT P6SM SCT100 BKN150
     FM151600 31015G25KT P6SM SCT090 SCT200
     FM160300 30011KT P6SM BKN080 BKN150=



000
FTUS46 KPDT 151100
TAFPSC
TAF
KPSC 151123Z 1512/1612 26010KT P6SM SCT080 BKN150
     FM151500 24014G21KT P6SM FEW080
     FM151800 26018G25KT P6SM SCT100
     FM160400 25011KT P6SM SCT080 OVC150
     FM160900 23008KT P6SM BKN070 OVC100=



000
FTUS46 KPDT 151100
TAFPDT
TAF
KPDT 151123Z 1512/1612 26018G28KT P6SM SCT070 BKN150
     FM151700 26020G30KT P6SM SCT070
     FM160500 26015G25KT P6SM BKN070 OVC150
     FM160900 23011KT P6SM BKN050 OVC100=



000
FTUS46 KPDT 151100
TAFDLS
TAF
KDLS 151123Z 1512/1612 31011KT P6SM SCT070 BKN150
     FM151500 31020G30KT P6SM SCT060 SCT150
     FM152100 31025G33KT P6SM SCT090 BKN200
     FM160400 30011KT P6SM BKN080 BKN150
     FM160900 30007KT P6SM VCSH BKN050 OVC080=



    US Dept of Commerce
    National Oceanic and Atmospheric Administration
    National Weather Service
    1325 East West Highway
    Silver Spring, MD 20910
    Page Author: NWS Internet Services Team
Disclaimer
Information Quality
Credits
Glossary
Privacy Policy
Freedom of Information Act (FOIA)
About Us
Career Opportunities